sensor_id;sensor_type;location;lat;lon;timestamp;P1;durP1;ratioP1;P2;durP2;ratioP2
17866;SDS011;9059;49.934;8.650;2022-12-29T00:00:28;2.80;;;1.13;;
17866;SDS011;9059;49.934;8.650;2022-12-29T00:01:32;4.40;;;1.00;;
17866;SDS011;9059;49.934;8.650;2022-12-29T00:02:35;2.30;;;1.25;;
17866;SDS011;9059;49.934;8.650;2022-12-29T00:03:38;4.45;;;1.10;;
17866;SDS011;9059;49.934;8.650;2022-12-29T00:04:39;2.88;;;1.00;;
17866;SDS011;9059;49.934;8.650;2022-12-29T00:05:42;3.95;;;1.15;;
17866;SDS011;9059;49.934;8.650;2022-12-29T00:06:45;1.35;;;0.80;;
17866;SDS011;9059;49.934;8.650;2022-12-29T00:07:49;2.78;;;1.33;;
17866;SDS011;9059;49.934;8.650;2022-12-29T00:08:52;2.22;;;1.05;;
17866;SDS011;9059;49.934;8.650;2022-12-29T00:09:53;4.07;;;1.27;;
17866;SDS011;9059;49.934;8.650;2022-12-29T00:10:56;2.05;;;0.50;;
17866;SDS011;9059;49.934;8.650;2022-12-29T00:11:58;1.50;;;0.90;;
17866;SDS011;9059;49.934;8.650;2022-12-29T00:13:01;5.50;;;1.20;;
17866;SDS011;9059;49.934;8.650;2022-12-29T00:14:21;2.00;;;1.00;;
17866;SDS011;9059;49.934;8.650;2022-12-29T00:15:42;3.55;;;1.15;;
17866;SDS011;9059;49.934;8.650;2022-12-29T00:16:44;2.00;;;0.85;;
17866;SDS011;9059;49.934;8.650;2022-12-29T00:17:47;2.28;;;1.27;;
17866;SDS011;9059;49.934;8.650;2022-12-29T00:18:49;6.65;;;1.20;;
17866;SDS011;9059;49.934;8.650;2022-12-29T00:19:51;3.20;;;1.17;;
17866;SDS011;9059;49.934;8.650;2022-12-29T00:21:12;3.00;;;1.25;;
17866;SDS011;9059;49.934;8.650;2022-12-29T00:22:34;2.97;;;1.17;;
17866;SDS011;9059;49.934;8.650;2022-12-29T00:23:55;5.88;;;0.95;;
17866;SDS011;9059;49.934;8.650;2022-12-29T00:25:15;2.05;;;0.82;;
17866;SDS011;9059;49.934;8.650;2022-12-29T00:26:35;3.92;;;0.90;;
17866;SDS011;9059;49.934;8.650;2022-12-29T00:27:56;1.77;;;1.00;;
17866;SDS011;9059;49.934;8.650;2022-12-29T00:29:18;2.72;;;1.30;;
17866;SDS011;9059;49.934;8.650;2022-12-29T00:30:38;3.25;;;1.33;;
17866;SDS011;9059;49.934;8.650;2022-12-29T00:32:10;2.50;;;1.08;;
17866;SDS011;9059;49.934;8.650;2022-12-29T00:33:31;2.80;;;1.00;;
17866;SDS011;9059;49.934;8.650;2022-12-29T00:34:52;2.28;;;1.00;;
17866;SDS011;9059;49.934;8.650;2022-12-29T00:36:11;3.53;;;1.48;;
17866;SDS011;9059;49.934;8.650;2022-12-29T00:37:17;4.88;;;0.95;;
17866;SDS011;9059;49.934;8.650;2022-12-29T00:38:41;2.13;;;0.95;;
17866;SDS011;9059;49.934;8.650;2022-12-29T00:40:05;1.45;;;0.85;;
17866;SDS011;9059;49.934;8.650;2022-12-29T00:41:25;2.53;;;1.10;;
17866;SDS011;9059;49.934;8.650;2022-12-29T00:42:46;2.13;;;1.00;;
17866;SDS011;9059;49.934;8.650;2022-12-29T00:44:06;1.45;;;0.90;;
17866;SDS011;9059;49.934;8.650;2022-12-29T00:45:11;2.00;;;0.95;;
17866;SDS011;9059;49.934;8.650;2022-12-29T00:46:13;2.50;;;1.10;;
17866;SDS011;9059;49.934;8.650;2022-12-29T00:47:20;2.10;;;0.90;;
17866;SDS011;9059;49.934;8.650;2022-12-29T00:48:22;2.22;;;1.00;;
17866;SDS011;9059;49.934;8.650;2022-12-29T00:49:39;2.33;;;0.90;;
17866;SDS011;9059;49.934;8.650;2022-12-29T00:50:41;3.65;;;1.05;;
17866;SDS011;9059;49.934;8.650;2022-12-29T00:51:43;1.70;;;0.85;;
17866;SDS011;9059;49.934;8.650;2022-12-29T00:52:45;3.67;;;0.70;;
17866;SDS011;9059;49.934;8.650;2022-12-29T00:53:49;4.32;;;1.00;;
17866;SDS011;9059;49.934;8.650;2022-12-29T00:54:51;4.38;;;1.00;;
17866;SDS011;9059;49.934;8.650;2022-12-29T00:55:53;1.90;;;1.00;;
17866;SDS011;9059;49.934;8.650;2022-12-29T00:56:55;1.45;;;0.82;;
17866;SDS011;9059;49.934;8.650;2022-12-29T00:57:58;1.95;;;0.80;;
17866;SDS011;9059;49.934;8.650;2022-12-29T00:59:00;2.83;;;0.80;;
17866;SDS011;9059;49.934;8.650;2022-12-29T01:00:03;4.45;;;0.70;;
17866;SDS011;9059;49.934;8.650;2022-12-29T01:01:07;1.98;;;0.63;;
17866;SDS011;9059;49.934;8.650;2022-12-29T01:02:10;0.90;;;0.60;;
17866;SDS011;9059;49.934;8.650;2022-12-29T01:03:13;1.25;;;0.50;;
17866;SDS011;9059;49.934;8.650;2022-12-29T01:04:15;2.35;;;0.68;;
17866;SDS011;9059;49.934;8.650;2022-12-29T01:05:18;1.02;;;0.52;;
17866;SDS011;9059;49.934;8.650;2022-12-29T01:06:20;1.25;;;0.70;;
17866;SDS011;9059;49.934;8.650;2022-12-29T01:07:23;2.65;;;0.55;;
17866;SDS011;9059;49.934;8.650;2022-12-29T01:08:24;1.02;;;0.60;;
17866;SDS011;9059;49.934;8.650;2022-12-29T01:09:30;1.13;;;0.45;;
17866;SDS011;9059;49.934;8.650;2022-12-29T01:10:57;0.95;;;0.60;;
17866;SDS011;9059;49.934;8.650;2022-12-29T01:11:59;0.85;;;0.60;;
17866;SDS011;9059;49.934;8.650;2022-12-29T01:13:02;1.25;;;0.73;;
17866;SDS011;9059;49.934;8.650;2022-12-29T01:14:05;2.30;;;0.60;;
17866;SDS011;9059;49.934;8.650;2022-12-29T01:15:09;6.35;;;0.70;;
17866;SDS011;9059;49.934;8.650;2022-12-29T01:16:12;6.38;;;0.60;;
17866;SDS011;9059;49.934;8.650;2022-12-29T01:17:15;1.00;;;0.45;;
17866;SDS011;9059;49.934;8.650;2022-12-29T01:18:17;1.17;;;0.50;;
17866;SDS011;9059;49.934;8.650;2022-12-29T01:19:20;1.13;;;0.52;;
17866;SDS011;9059;49.934;8.650;2022-12-29T01:20:22;1.52;;;0.50;;
17866;SDS011;9059;49.934;8.650;2022-12-29T01:21:24;1.42;;;0.60;;
17866;SDS011;9059;49.934;8.650;2022-12-29T01:22:27;0.65;;;0.55;;
17866;SDS011;9059;49.934;8.650;2022-12-29T01:23:30;0.40;;;0.30;;
17866;SDS011;9059;49.934;8.650;2022-12-29T01:24:33;1.63;;;0.52;;
17866;SDS011;9059;49.934;8.650;2022-12-29T01:25:36;2.10;;;0.52;;
17866;SDS011;9059;49.934;8.650;2022-12-29T01:26:37;1.05;;;0.50;;
17866;SDS011;9059;49.934;8.650;2022-12-29T01:27:40;0.85;;;0.50;;
17866;SDS011;9059;49.934;8.650;2022-12-29T01:28:42;2.83;;;0.52;;
17866;SDS011;9059;49.934;8.650;2022-12-29T01:29:45;3.72;;;0.43;;
17866;SDS011;9059;49.934;8.650;2022-12-29T01:30:48;0.80;;;0.50;;
17866;SDS011;9059;49.934;8.650;2022-12-29T01:31:49;0.32;;;0.30;;
17866;SDS011;9059;49.934;8.650;2022-12-29T01:32:52;0.88;;;0.55;;
17866;SDS011;9059;49.934;8.650;2022-12-29T01:33:54;0.85;;;0.40;;
17866;SDS011;9059;49.934;8.650;2022-12-29T01:34:57;4.63;;;0.77;;
17866;SDS011;9059;49.934;8.650;2022-12-29T01:35:59;0.85;;;0.40;;
17866;SDS011;9059;49.934;8.650;2022-12-29T01:37:02;1.50;;;0.73;;
17866;SDS011;9059;49.934;8.650;2022-12-29T01:38:04;5.15;;;0.70;;
17866;SDS011;9059;49.934;8.650;2022-12-29T01:39:07;2.58;;;0.60;;
17866;SDS011;9059;49.934;8.650;2022-12-29T01:40:11;0.63;;;0.30;;
17866;SDS011;9059;49.934;8.650;2022-12-29T01:41:15;1.60;;;0.40;;
17866;SDS011;9059;49.934;8.650;2022-12-29T01:42:19;2.45;;;0.65;;
17866;SDS011;9059;49.934;8.650;2022-12-29T01:43:37;1.02;;;0.40;;
17866;SDS011;9059;49.934;8.650;2022-12-29T01:44:50;1.20;;;0.50;;
17866;SDS011;9059;49.934;8.650;2022-12-29T01:45:54;1.90;;;0.55;;
17866;SDS011;9059;49.934;8.650;2022-12-29T01:46:56;0.85;;;0.57;;
17866;SDS011;9059;49.934;8.650;2022-12-29T01:48:00;2.97;;;0.50;;
17866;SDS011;9059;49.934;8.650;2022-12-29T01:49:04;0.50;;;0.40;;
17866;SDS011;9059;49.934;8.650;2022-12-29T01:50:12;0.77;;;0.40;;
17866;SDS011;9059;49.934;8.650;2022-12-29T01:51:18;1.45;;;0.43;;
17866;SDS011;9059;49.934;8.650;2022-12-29T01:52:24;3.50;;;0.60;;
17866;SDS011;9059;49.934;8.650;2022-12-29T01:53:29;1.02;;;0.60;;
17866;SDS011;9059;49.934;8.650;2022-12-29T01:54:34;2.40;;;0.43;;
17866;SDS011;9059;49.934;8.650;2022-12-29T01:55:40;2.45;;;0.60;;
17866;SDS011;9059;49.934;8.650;2022-12-29T01:56:45;2.25;;;0.68;;
17866;SDS011;9059;49.934;8.650;2022-12-29T01:57:48;0.82;;;0.30;;
17866;SDS011;9059;49.934;8.650;2022-12-29T01:58:53;2.05;;;0.45;;
17866;SDS011;9059;49.934;8.650;2022-12-29T01:59:58;1.95;;;0.40;;
17866;SDS011;9059;49.934;8.650;2022-12-29T02:01:04;2.58;;;0.50;;
17866;SDS011;9059;49.934;8.650;2022-12-29T02:02:07;0.38;;;0.30;;
17866;SDS011;9059;49.934;8.650;2022-12-29T02:03:10;2.92;;;0.50;;
17866;SDS011;9059;49.934;8.650;2022-12-29T02:04:12;1.23;;;0.40;;
17866;SDS011;9059;49.934;8.650;2022-12-29T02:05:21;0.95;;;0.60;;
17866;SDS011;9059;49.934;8.650;2022-12-29T02:06:27;0.68;;;0.50;;
17866;SDS011;9059;49.934;8.650;2022-12-29T02:07:31;0.50;;;0.30;;
17866;SDS011;9059;49.934;8.650;2022-12-29T02:08:33;1.38;;;0.30;;
17866;SDS011;9059;49.934;8.650;2022-12-29T02:09:36;0.93;;;0.40;;
17866;SDS011;9059;49.934;8.650;2022-12-29T02:10:38;0.80;;;0.50;;
17866;SDS011;9059;49.934;8.650;2022-12-29T02:11:42;0.50;;;0.30;;
17866;SDS011;9059;49.934;8.650;2022-12-29T02:12:44;0.40;;;0.20;;
17866;SDS011;9059;49.934;8.650;2022-12-29T02:13:47;1.30;;;0.40;;
17866;SDS011;9059;49.934;8.650;2022-12-29T02:14:50;1.70;;;0.45;;
17866;SDS011;9059;49.934;8.650;2022-12-29T02:15:56;0.55;;;0.30;;
17866;SDS011;9059;49.934;8.650;2022-12-29T02:17:05;1.70;;;0.60;;
17866;SDS011;9059;49.934;8.650;2022-12-29T02:18:20;0.85;;;0.40;;
17866;SDS011;9059;49.934;8.650;2022-12-29T02:19:35;1.63;;;0.45;;
17866;SDS011;9059;49.934;8.650;2022-12-29T02:21:03;3.15;;;0.50;;
17866;SDS011;9059;49.934;8.650;2022-12-29T02:22:23;0.30;;;0.30;;
17866;SDS011;9059;49.934;8.650;2022-12-29T02:25:32;0.70;;;0.35;;
17866;SDS011;9059;49.934;8.650;2022-12-29T02:26:49;1.25;;;0.35;;
17866;SDS011;9059;49.934;8.650;2022-12-29T02:28:10;0.22;;;0.20;;
17866;SDS011;9059;49.934;8.650;2022-12-29T02:29:33;1.25;;;0.30;;
17866;SDS011;9059;49.934;8.650;2022-12-29T02:30:53;0.43;;;0.40;;
17866;SDS011;9059;49.934;8.650;2022-12-29T02:32:01;1.33;;;0.30;;
17866;SDS011;9059;49.934;8.650;2022-12-29T02:33:07;0.88;;;0.30;;
17866;SDS011;9059;49.934;8.650;2022-12-29T02:34:18;0.90;;;0.28;;
17866;SDS011;9059;49.934;8.650;2022-12-29T02:35:26;0.60;;;0.40;;
17866;SDS011;9059;49.934;8.650;2022-12-29T02:36:33;0.77;;;0.25;;
17866;SDS011;9059;49.934;8.650;2022-12-29T02:37:41;1.13;;;0.50;;
17866;SDS011;9059;49.934;8.650;2022-12-29T02:38:47;1.33;;;0.50;;
17866;SDS011;9059;49.934;8.650;2022-12-29T02:39:56;1.15;;;0.50;;
17866;SDS011;9059;49.934;8.650;2022-12-29T02:41:02;1.90;;;0.30;;
17866;SDS011;9059;49.934;8.650;2022-12-29T02:42:11;1.08;;;0.55;;
17866;SDS011;9059;49.934;8.650;2022-12-29T02:43:19;0.47;;;0.38;;
17866;SDS011;9059;49.934;8.650;2022-12-29T02:44:26;1.42;;;0.40;;
17866;SDS011;9059;49.934;8.650;2022-12-29T02:45:34;0.40;;;0.40;;
17866;SDS011;9059;49.934;8.650;2022-12-29T02:46:43;0.35;;;0.30;;
17866;SDS011;9059;49.934;8.650;2022-12-29T02:47:47;0.47;;;0.20;;
17866;SDS011;9059;49.934;8.650;2022-12-29T02:48:52;0.50;;;0.40;;
17866;SDS011;9059;49.934;8.650;2022-12-29T02:49:57;0.45;;;0.30;;
17866;SDS011;9059;49.934;8.650;2022-12-29T02:51:04;0.82;;;0.30;;
17866;SDS011;9059;49.934;8.650;2022-12-29T02:52:09;2.25;;;0.40;;
17866;SDS011;9059;49.934;8.650;2022-12-29T02:53:17;1.20;;;0.43;;
17866;SDS011;9059;49.934;8.650;2022-12-29T02:54:41;0.75;;;0.50;;
17866;SDS011;9059;49.934;8.650;2022-12-29T02:55:47;0.85;;;0.40;;
17866;SDS011;9059;49.934;8.650;2022-12-29T02:56:50;0.50;;;0.28;;
17866;SDS011;9059;49.934;8.650;2022-12-29T02:58:05;1.23;;;0.55;;
17866;SDS011;9059;49.934;8.650;2022-12-29T02:59:15;1.40;;;0.20;;
17866;SDS011;9059;49.934;8.650;2022-12-29T03:00:18;1.95;;;0.47;;
17866;SDS011;9059;49.934;8.650;2022-12-29T03:01:28;0.43;;;0.32;;
17866;SDS011;9059;49.934;8.650;2022-12-29T03:02:48;0.22;;;0.20;;
17866;SDS011;9059;49.934;8.650;2022-12-29T03:04:08;1.17;;;0.47;;
17866;SDS011;9059;49.934;8.650;2022-12-29T03:05:38;0.60;;;0.50;;
17866;SDS011;9059;49.934;8.650;2022-12-29T03:06:51;3.20;;;0.40;;
17866;SDS011;9059;49.934;8.650;2022-12-29T03:07:56;0.52;;;0.40;;
17866;SDS011;9059;49.934;8.650;2022-12-29T03:09:08;0.82;;;0.40;;
17866;SDS011;9059;49.934;8.650;2022-12-29T03:10:22;1.10;;;0.40;;
17866;SDS011;9059;49.934;8.650;2022-12-29T03:11:32;1.23;;;0.40;;
17866;SDS011;9059;49.934;8.650;2022-12-29T03:12:56;0.98;;;0.38;;
17866;SDS011;9059;49.934;8.650;2022-12-29T03:14:23;0.88;;;0.50;;
17866;SDS011;9059;49.934;8.650;2022-12-29T03:15:48;1.27;;;0.60;;
17866;SDS011;9059;49.934;8.650;2022-12-29T03:17:07;1.80;;;0.30;;
17866;SDS011;9059;49.934;8.650;2022-12-29T03:18:14;2.35;;;0.30;;
17866;SDS011;9059;49.934;8.650;2022-12-29T03:19:19;3.55;;;0.35;;
17866;SDS011;9059;49.934;8.650;2022-12-29T03:20:23;0.80;;;0.50;;
17866;SDS011;9059;49.934;8.650;2022-12-29T03:21:31;0.50;;;0.30;;
17866;SDS011;9059;49.934;8.650;2022-12-29T03:22:55;0.35;;;0.35;;
17866;SDS011;9059;49.934;8.650;2022-12-29T03:24:02;1.13;;;0.40;;
17866;SDS011;9059;49.934;8.650;2022-12-29T03:25:07;3.17;;;1.02;;
17866;SDS011;9059;49.934;8.650;2022-12-29T03:26:11;0.60;;;0.32;;
17866;SDS011;9059;49.934;8.650;2022-12-29T03:27:15;1.40;;;0.30;;
17866;SDS011;9059;49.934;8.650;2022-12-29T03:28:22;0.70;;;0.28;;
17866;SDS011;9059;49.934;8.650;2022-12-29T03:29:26;3.53;;;0.47;;
17866;SDS011;9059;49.934;8.650;2022-12-29T03:30:30;0.80;;;0.45;;
17866;SDS011;9059;49.934;8.650;2022-12-29T03:31:34;0.80;;;0.40;;
17866;SDS011;9059;49.934;8.650;2022-12-29T03:32:38;1.77;;;0.40;;
17866;SDS011;9059;49.934;8.650;2022-12-29T03:33:43;2.08;;;0.40;;
17866;SDS011;9059;49.934;8.650;2022-12-29T03:34:46;2.03;;;0.52;;
17866;SDS011;9059;49.934;8.650;2022-12-29T03:35:49;0.60;;;0.43;;
17866;SDS011;9059;49.934;8.650;2022-12-29T03:36:54;1.48;;;0.50;;
17866;SDS011;9059;49.934;8.650;2022-12-29T03:37:59;3.33;;;0.38;;
17866;SDS011;9059;49.934;8.650;2022-12-29T03:39:06;1.10;;;0.45;;
17866;SDS011;9059;49.934;8.650;2022-12-29T03:40:12;1.40;;;0.50;;
17866;SDS011;9059;49.934;8.650;2022-12-29T03:41:16;2.85;;;0.80;;
17866;SDS011;9059;49.934;8.650;2022-12-29T03:42:20;0.95;;;0.40;;
17866;SDS011;9059;49.934;8.650;2022-12-29T03:43:25;2.92;;;0.50;;
17866;SDS011;9059;49.934;8.650;2022-12-29T03:44:31;0.70;;;0.40;;
17866;SDS011;9059;49.934;8.650;2022-12-29T03:45:35;0.55;;;0.50;;
17866;SDS011;9059;49.934;8.650;2022-12-29T03:46:37;1.10;;;0.63;;
17866;SDS011;9059;49.934;8.650;2022-12-29T03:47:39;2.63;;;0.50;;
17866;SDS011;9059;49.934;8.650;2022-12-29T03:48:43;0.63;;;0.40;;
17866;SDS011;9059;49.934;8.650;2022-12-29T03:49:45;1.73;;;0.50;;
17866;SDS011;9059;49.934;8.650;2022-12-29T03:50:47;1.52;;;0.70;;
17866;SDS011;9059;49.934;8.650;2022-12-29T03:51:50;0.40;;;0.35;;
17866;SDS011;9059;49.934;8.650;2022-12-29T03:52:52;2.00;;;0.40;;
17866;SDS011;9059;49.934;8.650;2022-12-29T03:53:55;0.75;;;0.40;;
17866;SDS011;9059;49.934;8.650;2022-12-29T03:54:56;0.77;;;0.50;;
17866;SDS011;9059;49.934;8.650;2022-12-29T03:55:59;5.03;;;0.60;;
17866;SDS011;9059;49.934;8.650;2022-12-29T03:57:01;0.73;;;0.30;;
17866;SDS011;9059;49.934;8.650;2022-12-29T03:58:03;1.92;;;0.40;;
17866;SDS011;9059;49.934;8.650;2022-12-29T03:59:05;1.13;;;0.50;;
17866;SDS011;9059;49.934;8.650;2022-12-29T04:00:08;0.85;;;0.52;;
17866;SDS011;9059;49.934;8.650;2022-12-29T04:01:11;0.80;;;0.50;;
17866;SDS011;9059;49.934;8.650;2022-12-29T04:02:14;2.15;;;0.52;;
17866;SDS011;9059;49.934;8.650;2022-12-29T04:03:18;3.15;;;0.45;;
17866;SDS011;9059;49.934;8.650;2022-12-29T04:04:22;0.60;;;0.40;;
17866;SDS011;9059;49.934;8.650;2022-12-29T04:05:24;0.90;;;0.55;;
17866;SDS011;9059;49.934;8.650;2022-12-29T04:06:27;1.38;;;0.57;;
17866;SDS011;9059;49.934;8.650;2022-12-29T04:07:28;1.17;;;0.43;;
17866;SDS011;9059;49.934;8.650;2022-12-29T04:08:31;1.90;;;0.60;;
17866;SDS011;9059;49.934;8.650;2022-12-29T04:09:34;1.13;;;0.60;;
17866;SDS011;9059;49.934;8.650;2022-12-29T04:10:36;0.75;;;0.60;;
17866;SDS011;9059;49.934;8.650;2022-12-29T04:11:38;0.77;;;0.57;;
17866;SDS011;9059;49.934;8.650;2022-12-29T04:12:40;1.00;;;0.47;;
17866;SDS011;9059;49.934;8.650;2022-12-29T04:13:43;1.15;;;0.50;;
17866;SDS011;9059;49.934;8.650;2022-12-29T04:14:45;3.30;;;0.77;;
17866;SDS011;9059;49.934;8.650;2022-12-29T04:15:48;1.95;;;0.60;;
17866;SDS011;9059;49.934;8.650;2022-12-29T04:16:50;0.70;;;0.50;;
17866;SDS011;9059;49.934;8.650;2022-12-29T04:17:53;1.17;;;0.50;;
17866;SDS011;9059;49.934;8.650;2022-12-29T04:18:54;1.52;;;0.40;;
17866;SDS011;9059;49.934;8.650;2022-12-29T04:19:58;1.60;;;0.50;;
17866;SDS011;9059;49.934;8.650;2022-12-29T04:21:15;2.05;;;1.00;;
17866;SDS011;9059;49.934;8.650;2022-12-29T04:22:18;1.00;;;0.68;;
17866;SDS011;9059;49.934;8.650;2022-12-29T04:23:20;1.60;;;0.55;;
17866;SDS011;9059;49.934;8.650;2022-12-29T04:24:22;3.38;;;0.50;;
17866;SDS011;9059;49.934;8.650;2022-12-29T04:25:24;3.85;;;0.57;;
17866;SDS011;9059;49.934;8.650;2022-12-29T04:26:27;1.77;;;0.57;;
17866;SDS011;9059;49.934;8.650;2022-12-29T04:27:30;0.70;;;0.52;;
17866;SDS011;9059;49.934;8.650;2022-12-29T04:28:31;1.02;;;0.68;;
17866;SDS011;9059;49.934;8.650;2022-12-29T04:29:34;0.90;;;0.50;;
17866;SDS011;9059;49.934;8.650;2022-12-29T04:30:36;0.65;;;0.43;;
17866;SDS011;9059;49.934;8.650;2022-12-29T04:31:39;0.55;;;0.40;;
17866;SDS011;9059;49.934;8.650;2022-12-29T04:32:41;1.60;;;0.60;;
17866;SDS011;9059;49.934;8.650;2022-12-29T04:33:43;2.17;;;0.50;;
17866;SDS011;9059;49.934;8.650;2022-12-29T04:34:45;0.52;;;0.40;;
17866;SDS011;9059;49.934;8.650;2022-12-29T04:35:49;3.20;;;0.40;;
17866;SDS011;9059;49.934;8.650;2022-12-29T04:36:51;0.68;;;0.50;;
17866;SDS011;9059;49.934;8.650;2022-12-29T04:37:54;1.85;;;0.60;;
17866;SDS011;9059;49.934;8.650;2022-12-29T04:38:57;0.98;;;0.50;;
17866;SDS011;9059;49.934;8.650;2022-12-29T04:39:59;3.03;;;0.68;;
17866;SDS011;9059;49.934;8.650;2022-12-29T04:41:01;1.08;;;0.52;;
17866;SDS011;9059;49.934;8.650;2022-12-29T04:42:04;1.30;;;0.60;;
17866;SDS011;9059;49.934;8.650;2022-12-29T04:43:06;1.33;;;0.50;;
17866;SDS011;9059;49.934;8.650;2022-12-29T04:44:09;0.75;;;0.45;;
17866;SDS011;9059;49.934;8.650;2022-12-29T04:45:11;0.98;;;0.63;;
17866;SDS011;9059;49.934;8.650;2022-12-29T04:46:14;0.90;;;0.50;;
17866;SDS011;9059;49.934;8.650;2022-12-29T04:47:18;1.95;;;0.50;;
17866;SDS011;9059;49.934;8.650;2022-12-29T04:48:20;0.95;;;0.60;;
17866;SDS011;9059;49.934;8.650;2022-12-29T04:49:23;0.60;;;0.45;;
17866;SDS011;9059;49.934;8.650;2022-12-29T04:50:24;2.53;;;0.60;;
17866;SDS011;9059;49.934;8.650;2022-12-29T04:51:28;0.95;;;0.47;;
17866;SDS011;9059;49.934;8.650;2022-12-29T04:52:31;1.17;;;0.40;;
17866;SDS011;9059;49.934;8.650;2022-12-29T04:53:33;0.88;;;0.47;;
17866;SDS011;9059;49.934;8.650;2022-12-29T04:54:36;2.08;;;0.65;;
17866;SDS011;9059;49.934;8.650;2022-12-29T04:55:37;1.02;;;0.60;;
17866;SDS011;9059;49.934;8.650;2022-12-29T04:56:40;2.80;;;1.27;;
17866;SDS011;9059;49.934;8.650;2022-12-29T04:57:42;1.27;;;0.60;;
17866;SDS011;9059;49.934;8.650;2022-12-29T04:58:45;2.40;;;0.70;;
17866;SDS011;9059;49.934;8.650;2022-12-29T04:59:47;3.25;;;0.60;;
17866;SDS011;9059;49.934;8.650;2022-12-29T05:00:49;0.75;;;0.40;;
17866;SDS011;9059;49.934;8.650;2022-12-29T05:01:52;1.05;;;0.60;;
17866;SDS011;9059;49.934;8.650;2022-12-29T05:02:55;0.57;;;0.45;;
17866;SDS011;9059;49.934;8.650;2022-12-29T05:03:57;1.40;;;0.68;;
17866;SDS011;9059;49.934;8.650;2022-12-29T05:04:59;2.30;;;0.60;;
17866;SDS011;9059;49.934;8.650;2022-12-29T05:06:01;2.65;;;0.50;;
17866;SDS011;9059;49.934;8.650;2022-12-29T05:07:05;1.58;;;0.63;;
17866;SDS011;9059;49.934;8.650;2022-12-29T05:08:08;2.38;;;0.50;;
17866;SDS011;9059;49.934;8.650;2022-12-29T05:09:11;1.67;;;0.50;;
17866;SDS011;9059;49.934;8.650;2022-12-29T05:10:12;1.40;;;0.45;;
17866;SDS011;9059;49.934;8.650;2022-12-29T05:11:15;2.45;;;0.60;;
17866;SDS011;9059;49.934;8.650;2022-12-29T05:12:17;2.92;;;0.57;;
17866;SDS011;9059;49.934;8.650;2022-12-29T05:13:20;2.50;;;0.60;;
17866;SDS011;9059;49.934;8.650;2022-12-29T05:14:22;1.00;;;0.40;;
17866;SDS011;9059;49.934;8.650;2022-12-29T05:15:25;1.60;;;0.68;;
17866;SDS011;9059;49.934;8.650;2022-12-29T05:16:26;2.40;;;0.65;;
17866;SDS011;9059;49.934;8.650;2022-12-29T05:17:29;2.05;;;0.68;;
17866;SDS011;9059;49.934;8.650;2022-12-29T05:18:31;1.20;;;0.60;;
17866;SDS011;9059;49.934;8.650;2022-12-29T05:19:34;1.90;;;0.50;;
17866;SDS011;9059;49.934;8.650;2022-12-29T05:20:36;1.60;;;0.50;;
17866;SDS011;9059;49.934;8.650;2022-12-29T05:21:38;2.85;;;0.52;;
17866;SDS011;9059;49.934;8.650;2022-12-29T05:22:41;1.25;;;0.40;;
17866;SDS011;9059;49.934;8.650;2022-12-29T05:23:44;2.58;;;0.60;;
17866;SDS011;9059;49.934;8.650;2022-12-29T05:24:46;2.70;;;0.60;;
17866;SDS011;9059;49.934;8.650;2022-12-29T05:25:48;1.58;;;0.40;;
17866;SDS011;9059;49.934;8.650;2022-12-29T05:26:50;1.05;;;0.50;;
17866;SDS011;9059;49.934;8.650;2022-12-29T05:27:53;4.43;;;0.60;;
17866;SDS011;9059;49.934;8.650;2022-12-29T05:28:55;4.07;;;0.60;;
17866;SDS011;9059;49.934;8.650;2022-12-29T05:29:57;0.63;;;0.40;;
17866;SDS011;9059;49.934;8.650;2022-12-29T05:30:59;2.65;;;0.60;;
17866;SDS011;9059;49.934;8.650;2022-12-29T05:32:02;1.45;;;0.52;;
17866;SDS011;9059;49.934;8.650;2022-12-29T05:33:04;2.15;;;0.55;;
17866;SDS011;9059;49.934;8.650;2022-12-29T05:34:08;2.85;;;0.70;;
17866;SDS011;9059;49.934;8.650;2022-12-29T05:35:10;0.82;;;0.40;;
17866;SDS011;9059;49.934;8.650;2022-12-29T05:36:13;2.97;;;0.70;;
17866;SDS011;9059;49.934;8.650;2022-12-29T05:37:15;1.17;;;0.65;;
17866;SDS011;9059;49.934;8.650;2022-12-29T05:38:19;1.23;;;0.50;;
17866;SDS011;9059;49.934;8.650;2022-12-29T05:39:21;1.23;;;0.50;;
17866;SDS011;9059;49.934;8.650;2022-12-29T05:40:24;0.57;;;0.40;;
17866;SDS011;9059;49.934;8.650;2022-12-29T05:41:26;1.23;;;0.50;;
17866;SDS011;9059;49.934;8.650;2022-12-29T05:42:28;5.40;;;0.80;;
17866;SDS011;9059;49.934;8.650;2022-12-29T05:43:30;3.67;;;0.70;;
17866;SDS011;9059;49.934;8.650;2022-12-29T05:44:33;0.75;;;0.40;;
17866;SDS011;9059;49.934;8.650;2022-12-29T05:45:35;1.42;;;0.50;;
17866;SDS011;9059;49.934;8.650;2022-12-29T05:46:38;0.93;;;0.30;;
17866;SDS011;9059;49.934;8.650;2022-12-29T05:47:40;0.70;;;0.40;;
17866;SDS011;9059;49.934;8.650;2022-12-29T05:48:43;0.47;;;0.40;;
17866;SDS011;9059;49.934;8.650;2022-12-29T05:49:44;3.90;;;0.60;;
17866;SDS011;9059;49.934;8.650;2022-12-29T05:50:47;1.63;;;0.80;;
17866;SDS011;9059;49.934;8.650;2022-12-29T05:51:49;0.73;;;0.40;;
17866;SDS011;9059;49.934;8.650;2022-12-29T05:52:52;1.80;;;0.65;;
17866;SDS011;9059;49.934;8.650;2022-12-29T05:53:55;2.88;;;0.52;;
17866;SDS011;9059;49.934;8.650;2022-12-29T05:54:58;1.20;;;0.50;;
17866;SDS011;9059;49.934;8.650;2022-12-29T05:56:00;1.08;;;0.60;;
17866;SDS011;9059;49.934;8.650;2022-12-29T05:57:03;1.35;;;0.52;;
17866;SDS011;9059;49.934;8.650;2022-12-29T05:58:04;1.23;;;0.52;;
17866;SDS011;9059;49.934;8.650;2022-12-29T05:59:07;0.52;;;0.50;;
17866;SDS011;9059;49.934;8.650;2022-12-29T06:00:09;1.45;;;0.40;;
17866;SDS011;9059;49.934;8.650;2022-12-29T06:01:13;1.02;;;0.60;;
17866;SDS011;9059;49.934;8.650;2022-12-29T06:02:15;1.00;;;0.75;;
17866;SDS011;9059;49.934;8.650;2022-12-29T06:03:18;1.45;;;0.45;;
17866;SDS011;9059;49.934;8.650;2022-12-29T06:04:20;1.65;;;0.57;;
17866;SDS011;9059;49.934;8.650;2022-12-29T06:05:22;0.85;;;0.45;;
17866;SDS011;9059;49.934;8.650;2022-12-29T06:06:24;1.00;;;0.40;;
17866;SDS011;9059;49.934;8.650;2022-12-29T06:07:27;1.15;;;0.60;;
17866;SDS011;9059;49.934;8.650;2022-12-29T06:08:28;0.88;;;0.45;;
17866;SDS011;9059;49.934;8.650;2022-12-29T06:09:32;1.45;;;0.45;;
17866;SDS011;9059;49.934;8.650;2022-12-29T06:10:34;0.60;;;0.52;;
17866;SDS011;9059;49.934;8.650;2022-12-29T06:11:37;1.30;;;0.50;;
17866;SDS011;9059;49.934;8.650;2022-12-29T06:12:42;3.55;;;0.70;;
17866;SDS011;9059;49.934;8.650;2022-12-29T06:13:44;1.55;;;0.60;;
17866;SDS011;9059;49.934;8.650;2022-12-29T06:14:47;1.48;;;0.57;;
17866;SDS011;9059;49.934;8.650;2022-12-29T06:15:50;2.75;;;0.52;;
17866;SDS011;9059;49.934;8.650;2022-12-29T06:16:52;4.63;;;0.52;;
17866;SDS011;9059;49.934;8.650;2022-12-29T06:17:54;1.45;;;0.30;;
17866;SDS011;9059;49.934;8.650;2022-12-29T06:18:56;2.00;;;0.65;;
17866;SDS011;9059;49.934;8.650;2022-12-29T06:19:59;0.88;;;0.50;;
17866;SDS011;9059;49.934;8.650;2022-12-29T06:21:01;0.55;;;0.47;;
17866;SDS011;9059;49.934;8.650;2022-12-29T06:22:04;1.55;;;0.43;;
17866;SDS011;9059;49.934;8.650;2022-12-29T06:23:06;2.38;;;0.68;;
17866;SDS011;9059;49.934;8.650;2022-12-29T06:24:09;1.02;;;0.47;;
17866;SDS011;9059;49.934;8.650;2022-12-29T06:25:13;1.05;;;0.50;;
17866;SDS011;9059;49.934;8.650;2022-12-29T06:26:16;1.67;;;0.40;;
17866;SDS011;9059;49.934;8.650;2022-12-29T06:27:18;0.90;;;0.38;;
17866;SDS011;9059;49.934;8.650;2022-12-29T06:28:20;1.48;;;0.60;;
17866;SDS011;9059;49.934;8.650;2022-12-29T06:29:22;1.00;;;0.50;;
17866;SDS011;9059;49.934;8.650;2022-12-29T06:30:25;1.77;;;0.50;;
17866;SDS011;9059;49.934;8.650;2022-12-29T06:31:27;1.98;;;0.57;;
17866;SDS011;9059;49.934;8.650;2022-12-29T06:32:29;0.80;;;0.40;;
17866;SDS011;9059;49.934;8.650;2022-12-29T06:33:31;2.15;;;0.47;;
17866;SDS011;9059;49.934;8.650;2022-12-29T06:34:34;1.98;;;0.63;;
17866;SDS011;9059;49.934;8.650;2022-12-29T06:35:36;1.20;;;0.50;;
17866;SDS011;9059;49.934;8.650;2022-12-29T06:36:38;1.85;;;0.60;;
17866;SDS011;9059;49.934;8.650;2022-12-29T06:37:41;1.15;;;0.60;;
17866;SDS011;9059;49.934;8.650;2022-12-29T06:38:44;1.58;;;0.70;;
17866;SDS011;9059;49.934;8.650;2022-12-29T06:39:47;4.43;;;0.77;;
17866;SDS011;9059;49.934;8.650;2022-12-29T06:40:50;2.88;;;0.60;;
17866;SDS011;9059;49.934;8.650;2022-12-29T06:41:52;0.90;;;0.55;;